sensor_id;sensor_type;location;lat;lon;timestamp;P1;durP1;ratioP1;P2;durP2;ratioP2
4051;SDS011;2040;50.924;11.604;2022-11-13T00:00:29;271.87;;;20.73;;
4051;SDS011;2040;50.924;11.604;2022-11-13T00:02:55;244.97;;;21.27;;
4051;SDS011;2040;50.924;11.604;2022-11-13T00:05:21;248.60;;;24.17;;
4051;SDS011;2040;50.924;11.604;2022-11-13T00:07:46;329.67;;;23.87;;
4051;SDS011;2040;50.924;11.604;2022-11-13T00:10:12;425.40;;;31.23;;
4051;SDS011;2040;50.924;11.604;2022-11-13T00:12:37;326.20;;;24.70;;
4051;SDS011;2040;50.924;11.604;2022-11-13T00:15:03;37.53;;;11.07;;
4051;SDS011;2040;50.924;11.604;2022-11-13T00:17:29;58.40;;;13.17;;
4051;SDS011;2040;50.924;11.604;2022-11-13T00:19:54;207.73;;;20.20;;
4051;SDS011;2040;50.924;11.604;2022-11-13T00:22:20;255.07;;;23.67;;
4051;SDS011;2040;50.924;11.604;2022-11-13T00:24:46;93.50;;;15.20;;
4051;SDS011;2040;50.924;11.604;2022-11-13T00:27:11;518.50;;;39.20;;
4051;SDS011;2040;50.924;11.604;2022-11-13T00:29:37;414.93;;;41.97;;
4051;SDS011;2040;50.924;11.604;2022-11-13T00:32:02;300.17;;;28.07;;
4051;SDS011;2040;50.924;11.604;2022-11-13T00:34:28;221.27;;;22.53;;
4051;SDS011;2040;50.924;11.604;2022-11-13T00:36:54;217.60;;;27.10;;
4051;SDS011;2040;50.924;11.604;2022-11-13T00:39:24;400.13;;;33.07;;
4051;SDS011;2040;50.924;11.604;2022-11-13T00:41:49;339.83;;;23.13;;
4051;SDS011;2040;50.924;11.604;2022-11-13T00:44:15;342.10;;;22.37;;
4051;SDS011;2040;50.924;11.604;2022-11-13T00:46:40;225.90;;;19.70;;
4051;SDS011;2040;50.924;11.604;2022-11-13T00:49:06;399.37;;;24.87;;
4051;SDS011;2040;50.924;11.604;2022-11-13T00:51:32;281.73;;;24.10;;
4051;SDS011;2040;50.924;11.604;2022-11-13T00:53:58;327.67;;;25.83;;
4051;SDS011;2040;50.924;11.604;2022-11-13T00:56:24;337.77;;;24.83;;
4051;SDS011;2040;50.924;11.604;2022-11-13T00:58:49;497.30;;;30.30;;
4051;SDS011;2040;50.924;11.604;2022-11-13T01:01:16;209.27;;;14.87;;
4051;SDS011;2040;50.924;11.604;2022-11-13T01:03:43;135.20;;;12.80;;
4051;SDS011;2040;50.924;11.604;2022-11-13T01:06:13;329.93;;;19.63;;
4051;SDS011;2040;50.924;11.604;2022-11-13T01:08:41;297.87;;;21.77;;
4051;SDS011;2040;50.924;11.604;2022-11-13T01:11:12;419.90;;;22.30;;
4051;SDS011;2040;50.924;11.604;2022-11-13T01:13:40;295.23;;;18.83;;
4051;SDS011;2040;50.924;11.604;2022-11-13T01:16:07;154.33;;;13.07;;
4051;SDS011;2040;50.924;11.604;2022-11-13T01:18:34;141.60;;;13.50;;
4051;SDS011;2040;50.924;11.604;2022-11-13T01:21:01;232.87;;;15.73;;
4051;SDS011;2040;50.924;11.604;2022-11-13T01:23:31;233.93;;;15.67;;
4051;SDS011;2040;50.924;11.604;2022-11-13T01:26:05;158.90;;;12.47;;
4051;SDS011;2040;50.924;11.604;2022-11-13T01:28:32;235.60;;;19.30;;
4051;SDS011;2040;50.924;11.604;2022-11-13T01:30:57;382.83;;;30.03;;
4051;SDS011;2040;50.924;11.604;2022-11-13T01:33:23;235.07;;;21.67;;
4051;SDS011;2040;50.924;11.604;2022-11-13T01:35:48;257.20;;;18.50;;
4051;SDS011;2040;50.924;11.604;2022-11-13T01:38:14;227.33;;;23.57;;
4051;SDS011;2040;50.924;11.604;2022-11-13T01:40:46;161.67;;;13.33;;
4051;SDS011;2040;50.924;11.604;2022-11-13T01:48:50;118.00;;;15.23;;
4051;SDS011;2040;50.924;11.604;2022-11-13T01:51:33;176.23;;;17.77;;
4051;SDS011;2040;50.924;11.604;2022-11-13T01:54:04;431.33;;;35.63;;
4051;SDS011;2040;50.924;11.604;2022-11-13T01:56:35;273.50;;;17.30;;
4051;SDS011;2040;50.924;11.604;2022-11-13T01:59:04;376.13;;;25.07;;
4051;SDS011;2040;50.924;11.604;2022-11-13T02:01:34;173.73;;;16.70;;
4051;SDS011;2040;50.924;11.604;2022-11-13T02:03:59;289.57;;;22.73;;
4051;SDS011;2040;50.924;11.604;2022-11-13T02:06:27;223.70;;;19.57;;
4051;SDS011;2040;50.924;11.604;2022-11-13T02:08:55;221.57;;;23.30;;
4051;SDS011;2040;50.924;11.604;2022-11-13T02:11:21;448.80;;;28.90;;
4051;SDS011;2040;50.924;11.604;2022-11-13T02:13:47;372.87;;;30.90;;
4051;SDS011;2040;50.924;11.604;2022-11-13T02:16:13;197.13;;;13.60;;
4051;SDS011;2040;50.924;11.604;2022-11-13T02:18:40;174.13;;;14.37;;
4051;SDS011;2040;50.924;11.604;2022-11-13T02:23:43;76.37;;;12.03;;
4051;SDS011;2040;50.924;11.604;2022-11-13T02:26:10;207.43;;;17.30;;
4051;SDS011;2040;50.924;11.604;2022-11-13T02:28:36;210.03;;;15.27;;
4051;SDS011;2040;50.924;11.604;2022-11-13T02:31:06;252.90;;;19.70;;
4051;SDS011;2040;50.924;11.604;2022-11-13T02:33:33;93.40;;;11.03;;
4051;SDS011;2040;50.924;11.604;2022-11-13T02:35:59;55.13;;;9.37;;
4051;SDS011;2040;50.924;11.604;2022-11-13T02:38:25;333.33;;;33.43;;
4051;SDS011;2040;50.924;11.604;2022-11-13T02:40:51;185.63;;;15.50;;
4051;SDS011;2040;50.924;11.604;2022-11-13T02:43:16;104.13;;;9.90;;
4051;SDS011;2040;50.924;11.604;2022-11-13T02:45:42;26.63;;;6.37;;
4051;SDS011;2040;50.924;11.604;2022-11-13T02:48:07;127.37;;;10.97;;
4051;SDS011;2040;50.924;11.604;2022-11-13T02:50:34;57.80;;;8.00;;
4051;SDS011;2040;50.924;11.604;2022-11-13T02:53:01;18.70;;;4.70;;
4051;SDS011;2040;50.924;11.604;2022-11-13T02:55:27;73.50;;;9.40;;
4051;SDS011;2040;50.924;11.604;2022-11-13T02:57:53;43.30;;;7.93;;
4051;SDS011;2040;50.924;11.604;2022-11-13T03:00:18;150.23;;;11.03;;
4051;SDS011;2040;50.924;11.604;2022-11-13T03:02:44;89.43;;;10.90;;
4051;SDS011;2040;50.924;11.604;2022-11-13T03:05:10;63.00;;;8.30;;
4051;SDS011;2040;50.924;11.604;2022-11-13T03:07:35;107.20;;;10.23;;
4051;SDS011;2040;50.924;11.604;2022-11-13T03:10:01;43.47;;;7.67;;
4051;SDS011;2040;50.924;11.604;2022-11-13T03:12:26;40.83;;;6.57;;
4051;SDS011;2040;50.924;11.604;2022-11-13T03:14:52;94.93;;;10.63;;
4051;SDS011;2040;50.924;11.604;2022-11-13T03:17:18;42.40;;;6.93;;
4051;SDS011;2040;50.924;11.604;2022-11-13T03:19:43;34.13;;;5.90;;
4051;SDS011;2040;50.924;11.604;2022-11-13T03:22:09;111.67;;;11.20;;
4051;SDS011;2040;50.924;11.604;2022-11-13T03:24:34;62.60;;;6.13;;
4051;SDS011;2040;50.924;11.604;2022-11-13T03:27:00;42.67;;;6.43;;
4051;SDS011;2040;50.924;11.604;2022-11-13T03:29:26;67.20;;;7.67;;
4051;SDS011;2040;50.924;11.604;2022-11-13T03:31:51;74.90;;;8.70;;
4051;SDS011;2040;50.924;11.604;2022-11-13T03:34:17;194.13;;;14.43;;
4051;SDS011;2040;50.924;11.604;2022-11-13T03:36:43;209.00;;;14.57;;
4051;SDS011;2040;50.924;11.604;2022-11-13T03:39:08;85.20;;;8.77;;
4051;SDS011;2040;50.924;11.604;2022-11-13T03:41:34;133.20;;;8.50;;
4051;SDS011;2040;50.924;11.604;2022-11-13T03:44:00;171.60;;;10.90;;
4051;SDS011;2040;50.924;11.604;2022-11-13T03:46:25;130.63;;;11.03;;
4051;SDS011;2040;50.924;11.604;2022-11-13T03:48:51;127.13;;;8.27;;
4051;SDS011;2040;50.924;11.604;2022-11-13T03:51:16;95.80;;;7.97;;
4051;SDS011;2040;50.924;11.604;2022-11-13T03:53:42;92.30;;;9.10;;
4051;SDS011;2040;50.924;11.604;2022-11-13T03:56:08;50.97;;;5.10;;
4051;SDS011;2040;50.924;11.604;2022-11-13T03:58:34;170.50;;;11.07;;
4051;SDS011;2040;50.924;11.604;2022-11-13T04:01:00;107.77;;;9.00;;
4051;SDS011;2040;50.924;11.604;2022-11-13T04:03:25;144.30;;;9.00;;
4051;SDS011;2040;50.924;11.604;2022-11-13T04:05:51;45.90;;;6.17;;
4051;SDS011;2040;50.924;11.604;2022-11-13T04:08:17;101.73;;;10.80;;
4051;SDS011;2040;50.924;11.604;2022-11-13T04:10:43;18.83;;;5.30;;
4051;SDS011;2040;50.924;11.604;2022-11-13T04:13:09;99.73;;;9.90;;
4051;SDS011;2040;50.924;11.604;2022-11-13T04:15:35;96.43;;;7.70;;
4051;SDS011;2040;50.924;11.604;2022-11-13T04:18:01;134.53;;;11.63;;
4051;SDS011;2040;50.924;11.604;2022-11-13T04:20:27;248.90;;;19.57;;
4051;SDS011;2040;50.924;11.604;2022-11-13T04:22:54;159.53;;;12.10;;
4051;SDS011;2040;50.924;11.604;2022-11-13T04:25:21;87.77;;;9.50;;
4051;SDS011;2040;50.924;11.604;2022-11-13T04:27:50;159.57;;;13.37;;
4051;SDS011;2040;50.924;11.604;2022-11-13T04:30:17;231.40;;;12.90;;
4051;SDS011;2040;50.924;11.604;2022-11-13T04:32:43;224.67;;;16.23;;
4051;SDS011;2040;50.924;11.604;2022-11-13T04:35:09;98.97;;;8.90;;
4051;SDS011;2040;50.924;11.604;2022-11-13T04:37:35;214.40;;;14.23;;
4051;SDS011;2040;50.924;11.604;2022-11-13T04:40:01;133.07;;;8.93;;
4051;SDS011;2040;50.924;11.604;2022-11-13T04:42:27;152.67;;;13.43;;
4051;SDS011;2040;50.924;11.604;2022-11-13T04:45:11;71.13;;;5.70;;
4051;SDS011;2040;50.924;11.604;2022-11-13T04:47:37;55.87;;;7.40;;
4051;SDS011;2040;50.924;11.604;2022-11-13T04:50:03;88.90;;;7.73;;
4051;SDS011;2040;50.924;11.604;2022-11-13T04:52:29;57.47;;;8.23;;
4051;SDS011;2040;50.924;11.604;2022-11-13T04:54:55;74.43;;;6.97;;
4051;SDS011;2040;50.924;11.604;2022-11-13T04:57:21;95.90;;;8.63;;
4051;SDS011;2040;50.924;11.604;2022-11-13T04:59:47;141.70;;;9.63;;
4051;SDS011;2040;50.924;11.604;2022-11-13T05:02:12;108.03;;;11.60;;
4051;SDS011;2040;50.924;11.604;2022-11-13T05:04:38;35.77;;;5.70;;
4051;SDS011;2040;50.924;11.604;2022-11-13T05:07:03;79.47;;;6.93;;
4051;SDS011;2040;50.924;11.604;2022-11-13T05:09:29;175.77;;;11.87;;
4051;SDS011;2040;50.924;11.604;2022-11-13T05:11:54;145.60;;;10.27;;
4051;SDS011;2040;50.924;11.604;2022-11-13T05:14:20;116.67;;;8.47;;
4051;SDS011;2040;50.924;11.604;2022-11-13T05:16:46;153.00;;;10.00;;
4051;SDS011;2040;50.924;11.604;2022-11-13T05:19:15;112.60;;;8.03;;
4051;SDS011;2040;50.924;11.604;2022-11-13T05:21:41;61.27;;;7.73;;
4051;SDS011;2040;50.924;11.604;2022-11-13T05:24:08;103.13;;;7.43;;
4051;SDS011;2040;50.924;11.604;2022-11-13T05:26:36;158.83;;;12.70;;
4051;SDS011;2040;50.924;11.604;2022-11-13T05:29:02;172.37;;;16.60;;
4051;SDS011;2040;50.924;11.604;2022-11-13T05:31:28;282.77;;;21.17;;
4051;SDS011;2040;50.924;11.604;2022-11-13T05:33:54;214.83;;;11.70;;
4051;SDS011;2040;50.924;11.604;2022-11-13T05:36:20;384.27;;;22.40;;
4051;SDS011;2040;50.924;11.604;2022-11-13T05:38:46;290.13;;;21.67;;
4051;SDS011;2040;50.924;11.604;2022-11-13T05:41:13;199.73;;;14.07;;
4051;SDS011;2040;50.924;11.604;2022-11-13T05:43:40;214.37;;;17.13;;
4051;SDS011;2040;50.924;11.604;2022-11-13T05:46:08;168.13;;;19.83;;
4051;SDS011;2040;50.924;11.604;2022-11-13T05:48:36;65.30;;;8.93;;
4051;SDS011;2040;50.924;11.604;2022-11-13T05:53:36;63.13;;;6.83;;
4051;SDS011;2040;50.924;11.604;2022-11-13T05:56:06;51.67;;;5.60;;
4051;SDS011;2040;50.924;11.604;2022-11-13T05:58:35;44.23;;;5.00;;
4051;SDS011;2040;50.924;11.604;2022-11-13T06:01:05;70.90;;;6.57;;
4051;SDS011;2040;50.924;11.604;2022-11-13T06:03:33;26.97;;;4.40;;
4051;SDS011;2040;50.924;11.604;2022-11-13T06:05:59;442.57;;;31.50;;
4051;SDS011;2040;50.924;11.604;2022-11-13T06:08:25;238.93;;;18.90;;
4051;SDS011;2040;50.924;11.604;2022-11-13T06:10:50;166.73;;;14.03;;
4051;SDS011;2040;50.924;11.604;2022-11-13T06:13:16;151.33;;;10.60;;
4051;SDS011;2040;50.924;11.604;2022-11-13T06:15:42;211.27;;;16.00;;
4051;SDS011;2040;50.924;11.604;2022-11-13T06:18:08;38.27;;;6.30;;
4051;SDS011;2040;50.924;11.604;2022-11-13T06:20:36;198.17;;;11.97;;
4051;SDS011;2040;50.924;11.604;2022-11-13T06:23:02;71.70;;;8.70;;
4051;SDS011;2040;50.924;11.604;2022-11-13T06:25:28;153.17;;;9.10;;
4051;SDS011;2040;50.924;11.604;2022-11-13T06:27:53;215.03;;;17.80;;
4051;SDS011;2040;50.924;11.604;2022-11-13T06:30:19;279.13;;;18.13;;
4051;SDS011;2040;50.924;11.604;2022-11-13T06:32:51;161.90;;;14.43;;
4051;SDS011;2040;50.924;11.604;2022-11-13T06:35:18;156.37;;;9.83;;
4051;SDS011;2040;50.924;11.604;2022-11-13T06:37:43;140.00;;;12.37;;
4051;SDS011;2040;50.924;11.604;2022-11-13T06:40:09;87.17;;;8.57;;
4051;SDS011;2040;50.924;11.604;2022-11-13T06:42:35;139.90;;;11.70;;
4051;SDS011;2040;50.924;11.604;2022-11-13T06:45:01;429.77;;;22.90;;
4051;SDS011;2040;50.924;11.604;2022-11-13T06:47:27;81.13;;;5.70;;
4051;SDS011;2040;50.924;11.604;2022-11-13T06:49:53;45.33;;;5.93;;
4051;SDS011;2040;50.924;11.604;2022-11-13T06:52:18;134.60;;;9.83;;
4051;SDS011;2040;50.924;11.604;2022-11-13T06:54:44;62.03;;;5.77;;
4051;SDS011;2040;50.924;11.604;2022-11-13T06:57:09;114.60;;;8.53;;
4051;SDS011;2040;50.924;11.604;2022-11-13T06:59:35;39.83;;;6.70;;
4051;SDS011;2040;50.924;11.604;2022-11-13T07:02:01;18.80;;;4.90;;
4051;SDS011;2040;50.924;11.604;2022-11-13T07:04:27;80.80;;;9.10;;
4051;SDS011;2040;50.924;11.604;2022-11-13T07:06:52;97.90;;;9.30;;
4051;SDS011;2040;50.924;11.604;2022-11-13T07:09:18;132.67;;;7.80;;
4051;SDS011;2040;50.924;11.604;2022-11-13T07:11:44;115.50;;;12.13;;
4051;SDS011;2040;50.924;11.604;2022-11-13T07:14:10;95.97;;;8.87;;
4051;SDS011;2040;50.924;11.604;2022-11-13T07:16:36;71.33;;;5.80;;
4051;SDS011;2040;50.924;11.604;2022-11-13T07:19:02;69.57;;;7.40;;
4051;SDS011;2040;50.924;11.604;2022-11-13T07:21:28;66.80;;;6.37;;
4051;SDS011;2040;50.924;11.604;2022-11-13T07:23:54;52.73;;;5.83;;
4051;SDS011;2040;50.924;11.604;2022-11-13T07:26:20;107.33;;;6.83;;
4051;SDS011;2040;50.924;11.604;2022-11-13T07:28:46;67.93;;;6.50;;
4051;SDS011;2040;50.924;11.604;2022-11-13T07:31:13;128.73;;;10.10;;
4051;SDS011;2040;50.924;11.604;2022-11-13T07:33:42;24.27;;;5.27;;
4051;SDS011;2040;50.924;11.604;2022-11-13T07:36:08;74.80;;;7.23;;
4051;SDS011;2040;50.924;11.604;2022-11-13T07:38:35;97.30;;;8.07;;
4051;SDS011;2040;50.924;11.604;2022-11-13T07:41:02;170.23;;;10.73;;
4051;SDS011;2040;50.924;11.604;2022-11-13T07:43:28;75.27;;;8.33;;
4051;SDS011;2040;50.924;11.604;2022-11-13T07:45:53;274.50;;;14.03;;
4051;SDS011;2040;50.924;11.604;2022-11-13T07:48:23;96.43;;;8.83;;
4051;SDS011;2040;50.924;11.604;2022-11-13T07:50:48;120.60;;;10.40;;
4051;SDS011;2040;50.924;11.604;2022-11-13T07:53:15;248.60;;;15.07;;
4051;SDS011;2040;50.924;11.604;2022-11-13T07:55:43;226.17;;;17.50;;
4051;SDS011;2040;50.924;11.604;2022-11-13T07:58:09;61.20;;;7.33;;
4051;SDS011;2040;50.924;11.604;2022-11-13T08:00:35;82.53;;;7.90;;
4051;SDS011;2040;50.924;11.604;2022-11-13T08:03:05;31.70;;;6.63;;
4051;SDS011;2040;50.924;11.604;2022-11-13T08:05:35;208.13;;;13.10;;
4051;SDS011;2040;50.924;11.604;2022-11-13T08:08:02;46.10;;;6.60;;
4051;SDS011;2040;50.924;11.604;2022-11-13T08:10:28;80.93;;;9.07;;
4051;SDS011;2040;50.924;11.604;2022-11-13T08:13:01;89.13;;;8.33;;
4051;SDS011;2040;50.924;11.604;2022-11-13T08:15:28;160.83;;;10.53;;
4051;SDS011;2040;50.924;11.604;2022-11-13T08:17:55;149.70;;;12.50;;
4051;SDS011;2040;50.924;11.604;2022-11-13T08:20:22;171.53;;;17.40;;
4051;SDS011;2040;50.924;11.604;2022-11-13T08:22:50;207.80;;;15.00;;
4051;SDS011;2040;50.924;11.604;2022-11-13T08:25:15;275.57;;;15.47;;
4051;SDS011;2040;50.924;11.604;2022-11-13T08:27:41;149.13;;;11.20;;
4051;SDS011;2040;50.924;11.604;2022-11-13T08:30:07;93.83;;;8.83;;
4051;SDS011;2040;50.924;11.604;2022-11-13T08:32:33;112.40;;;11.93;;
4051;SDS011;2040;50.924;11.604;2022-11-13T08:34:59;228.67;;;13.00;;
4051;SDS011;2040;50.924;11.604;2022-11-13T08:37:24;228.97;;;14.00;;
4051;SDS011;2040;50.924;11.604;2022-11-13T08:39:50;247.80;;;18.73;;
4051;SDS011;2040;50.924;11.604;2022-11-13T08:42:16;205.57;;;13.97;;
4051;SDS011;2040;50.924;11.604;2022-11-13T08:44:41;239.23;;;11.80;;
4051;SDS011;2040;50.924;11.604;2022-11-13T08:47:07;127.87;;;13.37;;
4051;SDS011;2040;50.924;11.604;2022-11-13T08:49:33;41.77;;;7.37;;
4051;SDS011;2040;50.924;11.604;2022-11-13T08:51:58;156.07;;;12.90;;
4051;SDS011;2040;50.924;11.604;2022-11-13T08:54:24;82.03;;;9.23;;
4051;SDS011;2040;50.924;11.604;2022-11-13T08:56:50;97.10;;;10.40;;
4051;SDS011;2040;50.924;11.604;2022-11-13T08:59:15;56.20;;;8.00;;
4051;SDS011;2040;50.924;11.604;2022-11-13T09:01:41;128.00;;;13.03;;
4051;SDS011;2040;50.924;11.604;2022-11-13T09:04:07;57.77;;;12.00;;
4051;SDS011;2040;50.924;11.604;2022-11-13T09:06:33;37.33;;;9.60;;
4051;SDS011;2040;50.924;11.604;2022-11-13T09:08:59;105.73;;;10.43;;
4051;SDS011;2040;50.924;11.604;2022-11-13T09:11:25;122.10;;;8.90;;
4051;SDS011;2040;50.924;11.604;2022-11-13T09:13:53;73.33;;;9.07;;
4051;SDS011;2040;50.924;11.604;2022-11-13T09:16:19;89.77;;;11.00;;
4051;SDS011;2040;50.924;11.604;2022-11-13T09:18:47;32.67;;;7.53;;
4051;SDS011;2040;50.924;11.604;2022-11-13T09:21:16;47.57;;;9.30;;
4051;SDS011;2040;50.924;11.604;2022-11-13T09:23:42;59.73;;;7.37;;
4051;SDS011;2040;50.924;11.604;2022-11-13T09:26:08;106.37;;;11.77;;
4051;SDS011;2040;50.924;11.604;2022-11-13T09:28:33;69.60;;;14.50;;
4051;SDS011;2040;50.924;11.604;2022-11-13T09:31:02;48.87;;;10.30;;
4051;SDS011;2040;50.924;11.604;2022-11-13T09:33:29;84.30;;;9.50;;
4051;SDS011;2040;50.924;11.604;2022-11-13T09:35:55;89.03;;;11.60;;
4051;SDS011;2040;50.924;11.604;2022-11-13T09:38:20;21.60;;;10.27;;
4051;SDS011;2040;50.924;11.604;2022-11-13T09:40:48;64.33;;;10.17;;
4051;SDS011;2040;50.924;11.604;2022-11-13T09:48:56;20.77;;;5.30;;
4051;SDS011;2040;50.924;11.604;2022-11-13T09:51:29;128.93;;;15.27;;
4051;SDS011;2040;50.924;11.604;2022-11-13T09:53:57;134.67;;;11.07;;
4051;SDS011;2040;50.924;11.604;2022-11-13T09:56:37;110.50;;;14.07;;
4051;SDS011;2040;50.924;11.604;2022-11-13T10:04:22;89.10;;;12.37;;
4051;SDS011;2040;50.924;11.604;2022-11-13T10:07:02;254.87;;;17.33;;
4051;SDS011;2040;50.924;11.604;2022-11-13T10:09:44;125.00;;;12.70;;
4051;SDS011;2040;50.924;11.604;2022-11-13T10:12:12;97.63;;;14.40;;
4051;SDS011;2040;50.924;11.604;2022-11-13T10:14:41;91.33;;;10.07;;
4051;SDS011;2040;50.924;11.604;2022-11-13T10:17:14;143.90;;;13.57;;
4051;SDS011;2040;50.924;11.604;2022-11-13T10:20:04;71.33;;;8.93;;
4051;SDS011;2040;50.924;11.604;2022-11-13T10:22:52;47.73;;;6.87;;
4051;SDS011;2040;50.924;11.604;2022-11-13T10:25:30;77.90;;;10.00;;
4051;SDS011;2040;50.924;11.604;2022-11-13T10:28:15;143.07;;;13.03;;
4051;SDS011;2040;50.924;11.604;2022-11-13T10:30:42;56.57;;;9.13;;
4051;SDS011;2040;50.924;11.604;2022-11-13T10:33:12;205.23;;;13.60;;
4051;SDS011;2040;50.924;11.604;2022-11-13T10:35:51;69.63;;;9.93;;
4051;SDS011;2040;50.924;11.604;2022-11-13T10:38:47;267.60;;;14.73;;
4051;SDS011;2040;50.924;11.604;2022-11-13T10:41:18;200.40;;;13.37;;
4051;SDS011;2040;50.924;11.604;2022-11-13T10:46:24;77.20;;;8.87;;
4051;SDS011;2040;50.924;11.604;2022-11-13T10:48:53;73.17;;;10.57;;
4051;SDS011;2040;50.924;11.604;2022-11-13T10:51:27;36.97;;;6.57;;
4051;SDS011;2040;50.924;11.604;2022-11-13T10:53:54;159.70;;;12.10;;
4051;SDS011;2040;50.924;11.604;2022-11-13T10:56:31;97.87;;;9.57;;
4051;SDS011;2040;50.924;11.604;2022-11-13T10:58:59;17.80;;;5.87;;
4051;SDS011;2040;50.924;11.604;2022-11-13T11:01:26;23.13;;;5.73;;
4051;SDS011;2040;50.924;11.604;2022-11-13T11:03:52;74.53;;;10.97;;
4051;SDS011;2040;50.924;11.604;2022-11-13T11:06:18;74.57;;;8.77;;
4051;SDS011;2040;50.924;11.604;2022-11-13T11:08:43;21.70;;;6.83;;
4051;SDS011;2040;50.924;11.604;2022-11-13T11:11:13;13.10;;;5.10;;
4051;SDS011;2040;50.924;11.604;2022-11-13T11:16:44;26.37;;;7.10;;
4051;SDS011;2040;50.924;11.604;2022-11-13T11:19:12;9.03;;;5.60;;
4051;SDS011;2040;50.924;11.604;2022-11-13T11:21:40;9.30;;;6.00;;
4051;SDS011;2040;50.924;11.604;2022-11-13T11:24:22;17.90;;;6.53;;
4051;SDS011;2040;50.924;11.604;2022-11-13T11:27:00;14.57;;;6.57;;
4051;SDS011;2040;50.924;11.604;2022-11-13T11:29:33;9.93;;;6.00;;
4051;SDS011;2040;50.924;11.604;2022-11-13T11:32:16;6.40;;;5.47;;
4051;SDS011;2040;50.924;11.604;2022-11-13T11:35:04;42.27;;;6.40;;
4051;SDS011;2040;50.924;11.604;2022-11-13T11:37:34;10.97;;;5.00;;
4051;SDS011;2040;50.924;11.604;2022-11-13T11:40:04;12.70;;;7.17;;
4051;SDS011;2040;50.924;11.604;2022-11-13T11:47:45;9.83;;;6.03;;
4051;SDS011;2040;50.924;11.604;2022-11-13T11:50:15;18.10;;;6.70;;
4051;SDS011;2040;50.924;11.604;2022-11-13T11:55:50;21.53;;;8.07;;
4051;SDS011;2040;50.924;11.604;2022-11-13T12:10:21;10.13;;;7.43;;
4051;SDS011;2040;50.924;11.604;2022-11-13T12:15:23;10.50;;;6.60;;
4051;SDS011;2040;50.924;11.604;2022-11-13T12:20:56;13.10;;;6.77;;
4051;SDS011;2040;50.924;11.604;2022-11-13T12:26:17;9.33;;;7.03;;
4051;SDS011;2040;50.924;11.604;2022-11-13T12:29:04;10.30;;;7.10;;
4051;SDS011;2040;50.924;11.604;2022-11-13T12:32:04;13.53;;;8.13;;
4051;SDS011;2040;50.924;11.604;2022-11-13T12:34:54;11.53;;;8.57;;
4051;SDS011;2040;50.924;11.604;2022-11-13T12:37:31;16.33;;;9.83;;
4051;SDS011;2040;50.924;11.604;2022-11-13T12:45:44;21.50;;;11.53;;
4051;SDS011;2040;50.924;11.604;2022-11-13T12:50:42;21.43;;;10.87;;
4051;SDS011;2040;50.924;11.604;2022-11-13T12:53:09;13.93;;;8.90;;
4051;SDS011;2040;50.924;11.604;2022-11-13T12:55:37;18.90;;;10.80;;
4051;SDS011;2040;50.924;11.604;2022-11-13T12:58:26;15.83;;;9.87;;
4051;SDS011;2040;50.924;11.604;2022-11-13T13:01:05;16.27;;;9.17;;
4051;SDS011;2040;50.924;11.604;2022-11-13T13:11:38;16.90;;;9.93;;
4051;SDS011;2040;50.924;11.604;2022-11-13T13:14:17;16.80;;;10.23;;
4051;SDS011;2040;50.924;11.604;2022-11-13T13:19:38;16.17;;;9.70;;
4051;SDS011;2040;50.924;11.604;2022-11-13T13:22:08;22.30;;;11.17;;
4051;SDS011;2040;50.924;11.604;2022-11-13T13:24:56;17.97;;;11.23;;
4051;SDS011;2040;50.924;11.604;2022-11-13T13:27:37;16.70;;;10.70;;
4051;SDS011;2040;50.924;11.604;2022-11-13T13:33:06;15.73;;;10.73;;
4051;SDS011;2040;50.924;11.604;2022-11-13T13:35:51;16.50;;;10.07;;
4051;SDS011;2040;50.924;11.604;2022-11-13T13:41:21;15.70;;;11.00;;
4051;SDS011;2040;50.924;11.604;2022-11-13T13:43:59;15.37;;;10.33;;
4051;SDS011;2040;50.924;11.604;2022-11-13T13:46:34;25.13;;;12.53;;
4051;SDS011;2040;50.924;11.604;2022-11-13T13:49:15;22.83;;;11.97;;
4051;SDS011;2040;50.924;11.604;2022-11-13T13:51:50;23.97;;;13.57;;
4051;SDS011;2040;50.924;11.604;2022-11-13T13:54:18;25.10;;;12.50;;
4051;SDS011;2040;50.924;11.604;2022-11-13T13:56:49;20.77;;;11.97;;
4051;SDS011;2040;50.924;11.604;2022-11-13T14:04:26;23.30;;;14.20;;
4051;SDS011;2040;50.924;11.604;2022-11-13T14:06:54;28.53;;;14.53;;
4051;SDS011;2040;50.924;11.604;2022-11-13T14:09:22;34.43;;;16.30;;
4051;SDS011;2040;50.924;11.604;2022-11-13T14:11:56;26.57;;;14.20;;
4051;SDS011;2040;50.924;11.604;2022-11-13T14:14:23;31.33;;;15.17;;
4051;SDS011;2040;50.924;11.604;2022-11-13T14:16:49;31.67;;;16.37;;
4051;SDS011;2040;50.924;11.604;2022-11-13T14:21:48;35.77;;;17.43;;
4051;SDS011;2040;50.924;11.604;2022-11-13T14:24:26;29.97;;;15.20;;
4051;SDS011;2040;50.924;11.604;2022-11-13T14:26:58;30.83;;;15.30;;
4051;SDS011;2040;50.924;11.604;2022-11-13T14:32:03;31.90;;;17.57;;
4051;SDS011;2040;50.924;11.604;2022-11-13T14:34:59;30.47;;;16.90;;
4051;SDS011;2040;50.924;11.604;2022-11-13T14:40:28;33.30;;;16.33;;
4051;SDS011;2040;50.924;11.604;2022-11-13T14:43:00;41.70;;;19.33;;
4051;SDS011;2040;50.924;11.604;2022-11-13T14:45:30;36.20;;;18.87;;
4051;SDS011;2040;50.924;11.604;2022-11-13T14:50:56;36.60;;;17.53;;
4051;SDS011;2040;50.924;11.604;2022-11-13T14:53:26;34.03;;;16.90;;
4051;SDS011;2040;50.924;11.604;2022-11-13T14:55:56;32.97;;;16.23;;
4051;SDS011;2040;50.924;11.604;2022-11-13T14:58:36;36.83;;;15.80;;
4051;SDS011;2040;50.924;11.604;2022-11-13T15:01:14;31.83;;;15.50;;
4051;SDS011;2040;50.924;11.604;2022-11-13T15:03:45;31.17;;;15.90;;
4051;SDS011;2040;50.924;11.604;2022-11-13T15:09:14;41.87;;;16.23;;
4051;SDS011;2040;50.924;11.604;2022-11-13T15:11:41;29.73;;;15.97;;
4051;SDS011;2040;50.924;11.604;2022-11-13T15:14:17;32.97;;;15.57;;
4051;SDS011;2040;50.924;11.604;2022-11-13T15:16:47;32.93;;;15.00;;
4051;SDS011;2040;50.924;11.604;2022-11-13T15:19:16;32.43;;;16.00;;
4051;SDS011;2040;50.924;11.604;2022-11-13T15:21:59;33.10;;;15.30;;
4051;SDS011;2040;50.924;11.604;2022-11-13T15:24:27;34.87;;;15.77;;
4051;SDS011;2040;50.924;11.604;2022-11-13T15:26:52;28.97;;;15.07;;
4051;SDS011;2040;50.924;11.604;2022-11-13T15:29:19;33.53;;;16.00;;
4051;SDS011;2040;50.924;11.604;2022-11-13T15:31:45;36.20;;;16.40;;
4051;SDS011;2040;50.924;11.604;2022-11-13T15:34:12;31.00;;;15.33;;
4051;SDS011;2040;50.924;11.604;2022-11-13T15:36:39;29.63;;;14.87;;
4051;SDS011;2040;50.924;11.604;2022-11-13T15:39:05;31.87;;;15.53;;
4051;SDS011;2040;50.924;11.604;2022-11-13T15:41:32;29.70;;;14.67;;
4051;SDS011;2040;50.924;11.604;2022-11-13T15:43:59;26.40;;;13.43;;
4051;SDS011;2040;50.924;11.604;2022-11-13T15:46:26;37.17;;;14.97;;
4051;SDS011;2040;50.924;11.604;2022-11-13T15:48:52;44.77;;;19.00;;
4051;SDS011;2040;50.924;11.604;2022-11-13T15:51:19;34.70;;;14.43;;
4051;SDS011;2040;50.924;11.604;2022-11-13T15:56:38;34.57;;;14.90;;
4051;SDS011;2040;50.924;11.604;2022-11-13T15:59:04;31.50;;;15.17;;
4051;SDS011;2040;50.924;11.604;2022-11-13T16:01:29;37.83;;;15.57;;
4051;SDS011;2040;50.924;11.604;2022-11-13T16:03:55;33.27;;;14.60;;
4051;SDS011;2040;50.924;11.604;2022-11-13T16:06:22;40.87;;;18.57;;
4051;SDS011;2040;50.924;11.604;2022-11-13T16:08:48;37.87;;;16.70;;
4051;SDS011;2040;50.924;11.604;2022-11-13T16:11:14;39.73;;;15.77;;
4051;SDS011;2040;50.924;11.604;2022-11-13T16:13:41;33.00;;;16.53;;
4051;SDS011;2040;50.924;11.604;2022-11-13T16:16:10;30.93;;;14.67;;
4051;SDS011;2040;50.924;11.604;2022-11-13T16:18:48;35.10;;;18.20;;
4051;SDS011;2040;50.924;11.604;2022-11-13T16:21:14;40.50;;;17.77;;
4051;SDS011;2040;50.924;11.604;2022-11-13T16:23:41;28.60;;;15.23;;